Time;durP1;ratioP1;P1;durP2;ratioP2;P2;SDS_P1;SDS_P2;PMS_P1;PMS_P2;Temp;Humidity;BMP_temperature;BMP_pressure;BME280_temperature;BME280_humidity;BME280_pressure;Samples;Min_cycle;Max_cycle;Signal;HPM_P1;HPM_P2
2021/11/24 00:02:03;;;;;;;25.63;23.03;;;-2.30;99.90;;;;;;4992007;28;20472;-76
2021/11/24 00:04:30;;;;;;;25.67;22.73;;;-2.30;99.90;;;;;;4988127;28;20877;-77
2021/11/24 00:06:57;;;;;;;25.20;22.73;;;-2.40;99.90;;;;;;4989959;28;20784;-77
2021/11/24 00:09:25;;;;;;;28.37;23.93;;;-2.40;99.90;;;;;;5003857;28;20452;-76
2021/11/24 00:11:51;;;;;;;25.33;22.77;;;-2.40;99.90;;;;;;5005163;28;20508;-76
2021/11/24 00:14:18;;;;;;;26.20;23.63;;;-2.40;99.90;;;;;;4990451;28;20449;-77
2021/11/24 00:16:45;;;;;;;25.50;22.90;;;-2.40;99.90;;;;;;5009782;28;20507;-76
2021/11/24 00:19:13;;;;;;;25.40;22.90;;;-2.40;99.90;;;;;;4994289;28;20432;-77
2021/11/24 00:21:40;;;;;;;24.40;22.13;;;-2.40;99.90;;;;;;4989901;28;20449;-76
2021/11/24 00:24:07;;;;;;;25.20;22.70;;;-2.40;99.90;;;;;;4993278;28;20456;-76
2021/11/24 00:26:33;;;;;;;24.50;22.20;;;-2.40;99.90;;;;;;5003859;28;20831;-76
2021/11/24 00:29:00;;;;;;;25.97;23.43;;;-2.40;99.90;;;;;;4990215;28;20445;-77
2021/11/24 00:31:27;;;;;;;26.30;23.63;;;-2.50;99.90;;;;;;4989625;28;20452;-76
2021/11/24 00:33:54;;;;;;;25.07;22.57;;;-2.50;99.90;;;;;;4991432;28;20463;-76
2021/11/24 00:36:22;;;;;;;23.50;21.20;;;-2.50;99.90;;;;;;4990635;28;20436;-77
2021/11/24 00:38:49;;;;;;;29.13;24.30;;;-2.50;99.90;;;;;;5010586;28;20456;-77
2021/11/24 00:41:16;;;;;;;25.30;22.67;;;-2.50;99.90;;;;;;5010981;28;20440;-77
2021/11/24 00:43:43;;;;;;;24.57;22.10;;;-2.40;99.90;;;;;;5010542;28;20484;-76
2021/11/24 00:46:10;;;;;;;25.47;22.77;;;-2.40;99.90;;;;;;5010523;28;20912;-77
2021/11/24 00:48:37;;;;;;;25.47;22.93;;;-2.40;99.90;;;;;;4995614;28;20475;-76
2021/11/24 00:51:04;;;;;;;24.27;21.63;;;-2.50;99.90;;;;;;4995908;28;20428;-77
2021/11/24 00:53:32;;;;;;;24.43;22.13;;;-2.50;99.90;;;;;;4989705;28;20460;-76
2021/11/24 00:55:59;;;;;;;24.60;22.10;;;-2.50;99.90;;;;;;5002323;28;20872;-77
2021/11/24 00:58:26;;;;;;;25.27;22.70;;;-2.50;99.90;;;;;;4993751;28;20432;-76
2021/11/24 01:00:53;;;;;;;24.67;22.07;;;-2.60;99.90;;;;;;5009327;28;20457;-76
2021/11/24 01:03:20;;;;;;;23.77;21.33;;;-2.60;99.90;;;;;;4995373;28;20519;-77
2021/11/24 01:05:47;;;;;;;24.47;22.07;;;-2.60;99.90;;;;;;5010327;28;20472;-77
2021/11/24 01:08:15;;;;;;;24.57;22.27;;;-2.60;99.90;;;;;;4990974;28;21004;-77
2021/11/24 01:10:44;;;;;;;24.93;22.47;;;-2.60;99.90;;;;;;4990169;28;20440;-77
2021/11/24 01:13:11;;;;;;;24.27;21.90;;;-2.60;99.90;;;;;;4988029;28;20512;-76
2021/11/24 01:15:39;;;;;;;24.23;21.90;;;-2.70;99.90;;;;;;4990669;28;20921;-76
2021/11/24 01:18:06;;;;;;;24.73;22.33;;;-2.70;99.90;;;;;;4990306;28;20445;-77
2021/11/24 01:20:33;;;;;;;24.63;22.03;;;-2.70;99.90;;;;;;4994584;28;20436;-76
2021/11/24 01:23:00;;;;;;;24.70;22.10;;;-2.70;99.90;;;;;;4990039;28;20472;-77
2021/11/24 01:25:29;;;;;;;25.77;23.13;;;-2.70;99.90;;;;;;4990243;28;20503;-76
2021/11/24 01:27:57;;;;;;;24.33;21.93;;;-2.80;99.90;;;;;;4989633;28;20520;-76
2021/11/24 01:30:24;;;;;;;25.47;22.87;;;-2.80;99.90;;;;;;5004598;28;20448;-77
2021/11/24 01:32:51;;;;;;;24.07;21.73;;;-2.80;99.90;;;;;;5005035;28;20469;-77
2021/11/24 01:35:18;;;;;;;22.63;20.53;;;-2.80;99.90;;;;;;4990971;28;20456;-77
2021/11/24 01:37:45;;;;;;;24.83;22.10;;;-2.80;99.90;;;;;;4988879;28;20933;-76
2021/11/24 01:40:12;;;;;;;25.50;23.00;;;-2.80;99.90;;;;;;4986952;28;20443;-76
2021/11/24 01:42:40;;;;;;;25.30;22.80;;;-2.70;99.90;;;;;;4991308;28;20460;-77
2021/11/24 01:45:11;;;;;;;25.50;23.07;;;-2.70;99.90;;;;;;4990266;28;20443;-76
2021/11/24 01:47:38;;;;;;;24.67;22.10;;;-2.70;99.90;;;;;;4988726;28;20613;-76
2021/11/24 01:50:07;;;;;;;25.27;22.73;;;-2.70;99.90;;;;;;5003577;28;20962;-77
2021/11/24 01:52:34;;;;;;;24.23;21.93;;;-2.70;99.90;;;;;;5023029;28;20531;-79
2021/11/24 01:55:02;;;;;;;24.87;22.27;;;-2.70;99.90;;;;;;4988394;28;20442;-77
2021/11/24 01:57:28;;;;;;;26.37;23.87;;;-2.70;99.90;;;;;;4995479;28;20450;-76
2021/11/24 01:59:56;;;;;;;25.00;22.60;;;-2.80;99.90;;;;;;5005418;28;20449;-77
2021/11/24 02:02:25;;;;;;;25.73;23.13;;;-2.80;99.90;;;;;;4990340;28;20495;-77
2021/11/24 02:04:52;;;;;;;25.60;22.90;;;-2.80;99.90;;;;;;4990043;28;20436;-77
2021/11/24 02:07:19;;;;;;;25.50;22.87;;;-2.80;99.90;;;;;;5003694;28;20477;-77
2021/11/24 02:09:47;;;;;;;26.40;23.80;;;-2.90;99.90;;;;;;5007269;28;20457;-76
2021/11/24 02:12:15;;;;;;;25.57;23.00;;;-2.90;99.90;;;;;;5023955;28;20535;-76
2021/11/24 02:14:43;;;;;;;26.57;22.50;;;-2.90;99.90;;;;;;4981772;28;20498;-76
2021/11/24 02:17:10;;;;;;;24.87;22.47;;;-2.90;99.90;;;;;;4993647;28;20842;-77
2021/11/24 02:19:38;;;;;;;25.83;23.13;;;-2.90;99.90;;;;;;4993206;28;20551;-76
2021/11/24 02:22:07;;;;;;;25.43;23.00;;;-2.90;99.90;;;;;;4987499;28;20522;-76
2021/11/24 02:24:36;;;;;;;24.70;22.30;;;-2.90;99.90;;;;;;4986270;28;20498;-77
2021/11/24 02:27:05;;;;;;;26.63;23.50;;;-2.90;99.90;;;;;;4989381;28;20987;-77
2021/11/24 02:29:32;;;;;;;25.23;22.77;;;-2.80;99.90;;;;;;4988245;28;20461;-76
2021/11/24 02:32:01;;;;;;;24.33;21.97;;;-2.70;99.90;;;;;;4989403;28;20813;-76
2021/11/24 02:34:29;;;;;;;26.97;24.17;;;-2.70;99.90;;;;;;4985552;28;20854;-76
2021/11/24 02:36:56;;;;;;;26.00;23.33;;;-2.80;99.90;;;;;;4988198;28;20972;-76
2021/11/24 02:39:24;;;;;;;24.23;21.63;;;-2.70;99.90;;;;;;4987846;28;20448;-77
2021/11/24 02:41:51;;;;;;;25.27;22.70;;;-2.80;99.90;;;;;;4986106;28;20488;-76
2021/11/24 02:44:20;;;;;;;24.40;22.10;;;-2.70;99.90;;;;;;5001479;28;20516;-76
2021/11/24 02:46:48;;;;;;;24.43;22.13;;;-2.70;99.90;;;;;;4986138;28;20481;-76
2021/11/24 02:49:15;;;;;;;25.17;22.50;;;-2.70;99.90;;;;;;4986966;28;20508;-76
2021/11/24 02:51:43;;;;;;;24.33;22.07;;;-2.70;99.90;;;;;;4992155;28;20802;-76
2021/11/24 02:54:10;;;;;;;26.20;22.10;;;-2.70;99.90;;;;;;4984985;28;20511;-76
2021/11/24 02:56:40;;;;;;;26.13;23.50;;;-2.60;99.90;;;;;;5002603;28;21039;-76
2021/11/24 02:59:08;;;;;;;24.50;22.10;;;-2.70;99.90;;;;;;4986118;28;20456;-77
2021/11/24 03:01:37;;;;;;;26.03;23.40;;;-2.70;99.90;;;;;;4989949;28;20437;-76
2021/11/24 03:04:05;;;;;;;24.20;21.83;;;-2.70;99.90;;;;;;4990205;28;20558;-77
2021/11/24 03:06:32;;;;;;;23.70;21.33;;;-2.60;99.90;;;;;;4977954;28;20464;-78
2021/11/24 03:08:58;;;;;;;25.07;22.53;;;-2.50;99.90;;;;;;4985509;28;20949;-76
2021/11/24 03:11:25;;;;;;;24.20;21.90;;;-2.50;99.90;;;;;;4988895;28;20440;-76
2021/11/24 03:13:53;;;;;;;25.37;22.63;;;-2.50;99.90;;;;;;5003978;28;20896;-76
2021/11/24 03:16:20;;;;;;;23.90;21.70;;;-2.50;99.90;;;;;;5002745;28;20473;-77
2021/11/24 03:18:47;;;;;;;23.97;21.70;;;-2.60;99.90;;;;;;4989435;28;20438;-77
2021/11/24 03:21:14;;;;;;;23.90;21.57;;;-2.50;99.90;;;;;;4989587;28;20437;-77
2021/11/24 03:23:41;;;;;;;24.00;21.80;;;-2.60;99.90;;;;;;5008360;28;20530;-76
2021/11/24 03:26:08;;;;;;;24.07;21.77;;;-2.60;99.90;;;;;;4990678;28;20817;-76
2021/11/24 03:28:35;;;;;;;24.30;22.00;;;-2.60;99.90;;;;;;5004212;28;20506;-76
2021/11/24 03:31:03;;;;;;;24.97;22.40;;;-2.60;99.90;;;;;;4988068;28;20440;-77
2021/11/24 03:33:30;;;;;;;24.93;22.63;;;-2.50;99.90;;;;;;4973008;28;20456;-77
2021/11/24 03:35:57;;;;;;;23.53;21.43;;;-2.60;99.90;;;;;;5002434;28;20493;-77
2021/11/24 03:38:24;;;;;;;23.77;21.60;;;-2.50;99.90;;;;;;4989552;28;20468;-76
2021/11/24 03:40:50;;;;;;;24.07;21.77;;;-2.50;99.90;;;;;;4987093;28;20510;-77
2021/11/24 03:43:17;;;;;;;24.37;21.97;;;-2.50;99.90;;;;;;5003852;28;20535;-76
2021/11/24 03:45:44;;;;;;;24.40;22.13;;;-2.50;99.90;;;;;;4984588;28;21015;-76
2021/11/24 03:48:12;;;;;;;25.73;23.03;;;-2.50;99.90;;;;;;4988452;28;20491;-76
2021/11/24 03:50:39;;;;;;;24.50;22.07;;;-2.60;99.90;;;;;;4992883;28;20428;-78
2021/11/24 03:53:06;;;;;;;26.27;22.80;;;-2.60;99.90;;;;;;4980126;28;20982;-78
2021/11/24 03:55:33;;;;;;;27.13;23.53;;;-2.50;99.90;;;;;;4969554;28;20955;-77
2021/11/24 03:58:02;;;;;;;25.70;23.03;;;-2.50;99.90;;;;;;4976711;28;20512;-77
2021/11/24 04:00:30;;;;;;;24.53;22.13;;;-2.40;99.90;;;;;;4976105;28;20436;-77
2021/11/24 04:02:57;;;;;;;24.53;22.13;;;-2.30;99.90;;;;;;4989713;28;21020;-77
2021/11/24 04:05:25;;;;;;;25.63;23.23;;;-2.30;99.90;;;;;;4990947;28;20456;-77
2021/11/24 04:07:53;;;;;;;25.03;22.37;;;-2.20;99.90;;;;;;4974079;28;20485;-77
2021/11/24 04:10:20;;;;;;;26.00;23.50;;;-2.20;99.90;;;;;;4983871;28;20472;-78
2021/11/24 04:12:47;;;;;;;23.90;21.70;;;-2.30;99.90;;;;;;4978060;28;20835;-77
2021/11/24 04:15:16;;;;;;;23.60;21.40;;;-2.20;99.90;;;;;;4989123;28;20454;-78
2021/11/24 04:17:43;;;;;;;23.67;21.47;;;-2.10;99.90;;;;;;4970626;28;20532;-77
2021/11/24 04:20:12;;;;;;;23.93;21.63;;;-2.00;99.90;;;;;;4971557;28;20507;-76
2021/11/24 04:22:41;;;;;;;24.33;22.17;;;-2.00;99.90;;;;;;4977080;28;21035;-76
2021/11/24 04:25:09;;;;;;;23.53;21.27;;;-2.00;99.90;;;;;;4987013;28;20439;-76
2021/11/24 04:27:36;;;;;;;24.03;21.53;;;-2.00;99.90;;;;;;4980179;28;20823;-76
2021/11/24 04:30:04;;;;;;;23.13;21.13;;;-2.00;99.90;;;;;;4982968;28;20483;-77
2021/11/24 04:32:31;;;;;;;24.30;22.20;;;-2.10;99.90;;;;;;5003760;28;20476;-76
2021/11/24 04:34:58;;;;;;;24.40;22.13;;;-2.00;99.90;;;;;;5004750;28;20471;-76
2021/11/24 04:37:25;;;;;;;24.97;22.47;;;-2.00;99.90;;;;;;4990316;28;20464;-76
2021/11/24 04:39:53;;;;;;;26.87;24.03;;;-2.10;99.90;;;;;;4991584;28;20437;-76
2021/11/24 04:42:20;;;;;;;25.20;22.70;;;-2.10;99.90;;;;;;4992416;28;20508;-76
2021/11/24 04:44:47;;;;;;;25.10;22.70;;;-2.00;99.90;;;;;;4988742;28;20461;-76
2021/11/24 04:47:13;;;;;;;24.23;22.00;;;-2.00;99.90;;;;;;4986964;28;20480;-76
2021/11/24 04:49:41;;;;;;;24.60;22.20;;;-2.00;99.90;;;;;;4988006;28;20440;-77
2021/11/24 04:52:08;;;;;;;25.30;22.80;;;-2.00;99.90;;;;;;4987656;28;20844;-76
2021/11/24 04:54:35;;;;;;;23.93;21.63;;;-2.00;99.90;;;;;;5006638;28;20449;-76
2021/11/24 04:57:03;;;;;;;24.17;21.60;;;-2.00;99.90;;;;;;5005952;28;21005;-76
2021/11/24 04:59:30;;;;;;;24.67;22.23;;;-2.00;99.90;;;;;;4979220;28;20433;-76
2021/11/24 05:01:57;;;;;;;23.87;21.77;;;-2.10;99.90;;;;;;4990994;28;20522;-76
2021/11/24 05:04:25;;;;;;;23.90;21.77;;;-2.20;99.90;;;;;;4988449;28;20432;-76
2021/11/24 05:06:52;;;;;;;22.40;20.30;;;-2.10;99.90;;;;;;4993032;28;20468;-76
2021/11/24 05:09:19;;;;;;;24.67;22.23;;;-2.10;99.90;;;;;;4993625;28;20456;-76
2021/11/24 05:11:46;;;;;;;24.00;21.80;;;-2.20;99.90;;;;;;5009746;28;20540;-76
2021/11/24 05:14:17;;;;;;;23.67;21.37;;;-2.10;99.90;;;;;;4994569;28;20853;-75
2021/11/24 05:16:47;;;;;;;24.03;21.83;;;-2.20;99.90;;;;;;4992772;28;20827;-76
2021/11/24 05:19:18;;;;;;;24.33;22.03;;;-2.20;99.90;;;;;;5009781;28;20498;-76
2021/11/24 05:21:49;;;;;;;24.30;22.07;;;-2.30;99.90;;;;;;4988126;28;20583;-77
2021/11/24 05:24:16;;;;;;;23.67;21.57;;;-2.30;99.90;;;;;;5001653;28;20463;-76
2021/11/24 05:26:43;;;;;;;23.07;20.60;;;-2.30;99.90;;;;;;4988803;28;20500;-77
2021/11/24 05:29:10;;;;;;;23.90;21.77;;;-2.40;99.90;;;;;;4988390;28;20560;-77
2021/11/24 05:31:38;;;;;;;22.40;20.37;;;-2.40;99.90;;;;;;5008347;28;20456;-77
2021/11/24 05:34:05;;;;;;;23.13;21.03;;;-2.40;99.90;;;;;;4990151;28;20484;-77
2021/11/24 05:36:34;;;;;;;24.63;22.37;;;-2.50;99.90;;;;;;4988000;28;20449;-77
2021/11/24 05:39:01;;;;;;;25.63;23.23;;;-2.50;99.90;;;;;;5003569;28;20452;-76
2021/11/24 05:41:27;;;;;;;24.17;21.97;;;-2.40;99.90;;;;;;4979048;28;20437;-77
2021/11/24 05:44:03;;;;;;;25.43;23.03;;;-2.50;99.90;;;;;;4986652;28;20602;-76
2021/11/24 05:46:41;;;;;;;25.93;23.43;;;-2.60;99.90;;;;;;4996324;28;20444;-78
2021/11/24 05:49:10;;;;;;;24.47;22.23;;;-2.50;99.90;;;;;;5004845;28;20503;-76
2021/11/24 05:51:37;;;;;;;23.23;21.10;;;-2.60;99.90;;;;;;4993045;28;20441;-77
2021/11/24 05:54:05;;;;;;;23.43;21.37;;;-2.60;99.90;;;;;;4989575;28;20541;-76
2021/11/24 05:56:34;;;;;;;23.57;21.50;;;-2.70;99.90;;;;;;4987774;28;20452;-77
2021/11/24 05:59:00;;;;;;;24.47;22.00;;;-2.70;99.90;;;;;;5004027;28;20821;-77
2021/11/24 06:01:27;;;;;;;24.77;22.20;;;-2.80;99.90;;;;;;4987845;28;20468;-77
2021/11/24 06:03:54;;;;;;;25.50;23.00;;;-2.80;99.90;;;;;;4988016;28;20535;-76
2021/11/24 06:06:22;;;;;;;25.77;23.13;;;-2.80;99.90;;;;;;4990157;28;20460;-77
2021/11/24 06:08:49;;;;;;;23.70;21.50;;;-2.90;99.90;;;;;;4986841;28;20894;-77
2021/11/24 06:11:16;;;;;;;23.90;21.63;;;-2.90;99.90;;;;;;4985725;28;20498;-77
2021/11/24 06:13:42;;;;;;;23.77;21.43;;;-2.90;99.90;;;;;;4984212;28;20555;-77
2021/11/24 06:16:09;;;;;;;25.83;22.60;;;-3.00;99.90;;;;;;4989184;28;20437;-77
2021/11/24 06:18:36;;;;;;;23.63;21.47;;;-3.00;99.90;;;;;;4988515;28;20440;-77
2021/11/24 06:21:03;;;;;;;24.57;22.13;;;-3.00;99.90;;;;;;5004227;28;20468;-78
2021/11/24 06:23:32;;;;;;;24.93;22.57;;;-3.00;99.90;;;;;;5011907;28;20495;-81
2021/11/24 06:25:59;;;;;;;22.43;20.50;;;-3.00;99.90;;;;;;4995575;28;20498;-80
2021/11/24 06:28:26;;;;;;;23.20;21.10;;;-3.00;99.90;;;;;;4975269;28;20500;-77
2021/11/24 06:30:53;;;;;;;24.73;22.33;;;-3.00;99.90;;;;;;4973595;28;20449;-77
2021/11/24 06:33:20;;;;;;;25.57;23.00;;;-3.00;99.90;;;;;;4976066;28;20511;-77
2021/11/24 06:35:46;;;;;;;24.40;22.27;;;-3.00;99.90;;;;;;4988784;28;21161;-77
2021/11/24 06:38:13;;;;;;;25.67;23.17;;;-3.10;99.90;;;;;;4993521;28;20429;-77
2021/11/24 06:40:41;;;;;;;24.13;21.93;;;-3.10;99.90;;;;;;5006425;28;20456;-77
2021/11/24 06:43:08;;;;;;;24.43;22.17;;;-3.10;99.90;;;;;;4978748;28;20512;-77
2021/11/24 06:45:35;;;;;;;25.50;22.97;;;-3.10;99.90;;;;;;4992595;28;20880;-77
2021/11/24 06:48:02;;;;;;;25.17;22.53;;;-3.10;99.90;;;;;;4990905;28;20532;-77
2021/11/24 06:50:29;;;;;;;24.03;21.77;;;-3.10;99.90;;;;;;4985662;28;20901;-77
2021/11/24 06:52:56;;;;;;;24.53;22.10;;;-3.00;99.90;;;;;;4992941;28;20464;-77
2021/11/24 06:55:23;;;;;;;25.50;22.93;;;-3.00;99.90;;;;;;5002321;28;20456;-77
2021/11/24 06:57:51;;;;;;;24.87;22.67;;;-3.00;99.90;;;;;;4987561;28;20494;-77
2021/11/24 07:00:18;;;;;;;25.83;23.40;;;-2.90;99.90;;;;;;4982016;28;20449;-78
2021/11/24 07:02:45;;;;;;;25.27;22.67;;;-2.90;99.90;;;;;;4973543;28;20461;-77
2021/11/24 07:05:13;;;;;;;25.43;22.73;;;-2.80;99.90;;;;;;4974472;28;20481;-78
2021/11/24 07:07:40;;;;;;;23.93;21.73;;;-2.70;99.90;;;;;;4987780;28;20476;-77
2021/11/24 07:10:08;;;;;;;25.17;22.67;;;-2.80;99.90;;;;;;5002091;28;20534;-77
2021/11/24 07:12:35;;;;;;;26.17;23.70;;;-2.80;99.90;;;;;;4987904;28;20539;-77
2021/11/24 07:15:05;;;;;;;24.93;22.63;;;-2.80;99.90;;;;;;4976553;28;20457;-78
2021/11/24 07:17:32;;;;;;;24.77;22.37;;;-2.90;99.90;;;;;;4974981;28;20440;-77
2021/11/24 07:20:01;;;;;;;23.60;21.50;;;-2.90;99.90;;;;;;4987798;28;20438;-78
2021/11/24 07:22:28;;;;;;;26.63;24.07;;;-2.80;99.90;;;;;;4973674;28;20897;-78
2021/11/24 07:24:54;;;;;;;24.77;22.47;;;-2.70;99.90;;;;;;4976256;28;21013;-77
2021/11/24 07:27:21;;;;;;;26.20;23.80;;;-2.60;99.90;;;;;;4977294;28;20489;-77
2021/11/24 07:29:48;;;;;;;23.93;21.63;;;-2.50;99.90;;;;;;4983318;28;20436;-77
2021/11/24 07:32:16;;;;;;;25.60;23.10;;;-2.40;99.90;;;;;;4990641;28;20472;-78
2021/11/24 07:34:43;;;;;;;24.27;22.07;;;-2.30;99.90;;;;;;4982709;28;20469;-78
2021/11/24 07:37:10;;;;;;;24.30;22.27;;;-2.20;99.90;;;;;;4988043;28;20433;-79
2021/11/24 07:39:37;;;;;;;24.37;22.27;;;-2.10;99.90;;;;;;4985390;28;20486;-78
2021/11/24 07:42:04;;;;;;;24.33;21.97;;;-2.00;99.90;;;;;;4975210;28;20469;-77
2021/11/24 07:44:31;;;;;;;24.73;22.37;;;-2.00;99.90;;;;;;4976420;28;20434;-77
2021/11/24 07:46:58;;;;;;;25.57;22.90;;;-1.90;99.90;;;;;;4988115;28;20444;-79
2021/11/24 07:49:26;;;;;;;24.37;22.20;;;-1.80;99.90;;;;;;4986702;28;20483;-78
2021/11/24 07:51:53;;;;;;;25.00;22.70;;;-1.80;99.90;;;;;;4987414;28;20519;-78
2021/11/24 07:54:20;;;;;;;25.10;22.67;;;-1.70;99.90;;;;;;4986758;28;20456;-78
2021/11/24 07:56:47;;;;;;;23.50;21.33;;;-1.70;99.90;;;;;;4972961;28;20500;-78
2021/11/24 07:59:13;;;;;;;24.23;22.07;;;-1.70;99.90;;;;;;4982579;28;20946;-78
2021/11/24 08:01:40;;;;;;;25.23;22.80;;;-1.70;99.90;;;;;;4983094;28;20508;-78
2021/11/24 08:04:07;;;;;;;24.93;22.73;;;-1.60;99.90;;;;;;4973270;28;20783;-78
2021/11/24 08:06:35;;;;;;;25.07;22.80;;;-1.40;99.90;;;;;;4986233;28;20453;-78
2021/11/24 08:09:02;;;;;;;24.20;21.90;;;-1.30;99.90;;;;;;4990692;28;20728;-78
2021/11/24 08:11:29;;;;;;;23.90;21.77;;;-1.30;99.90;;;;;;4977503;28;20445;-78
2021/11/24 08:13:57;;;;;;;24.13;21.93;;;-1.20;99.90;;;;;;4975596;28;20434;-78
2021/11/24 08:16:24;;;;;;;23.93;21.87;;;-1.20;99.90;;;;;;4993332;28;20459;-78
2021/11/24 08:18:51;;;;;;;24.90;22.80;;;-1.10;99.90;;;;;;4994575;28;20450;-77
2021/11/24 08:21:18;;;;;;;25.30;23.10;;;-1.00;99.90;;;;;;4988939;28;20459;-78
2021/11/24 08:23:46;;;;;;;24.80;22.47;;;-1.00;99.90;;;;;;4982082;28;20459;-78
2021/11/24 08:26:14;;;;;;;23.47;21.57;;;-1.00;99.90;;;;;;4982772;28;20793;-77
2021/11/24 08:28:41;;;;;;;25.03;22.70;;;-1.00;99.90;;;;;;4976424;28;20477;-78
2021/11/24 08:31:08;;;;;;;24.00;21.93;;;-1.00;99.90;;;;;;4991445;28;20466;-77
2021/11/24 08:33:35;;;;;;;24.13;22.03;;;-0.80;99.90;;;;;;4988900;28;20962;-77
2021/11/24 08:36:03;;;;;;;23.70;21.70;;;-0.80;99.90;;;;;;4990088;28;20444;-78
2021/11/24 08:38:31;;;;;;;24.20;21.97;;;-0.80;99.90;;;;;;5000066;28;20446;-77
2021/11/24 08:40:59;;;;;;;23.83;21.50;;;-0.80;99.90;;;;;;4990140;28;20443;-77
2021/11/24 08:43:26;;;;;;;24.60;22.30;;;-0.70;99.90;;;;;;4990610;28;20551;-77
2021/11/24 08:45:53;;;;;;;24.77;22.17;;;-0.60;99.90;;;;;;5022903;28;20448;-77
2021/11/24 08:48:21;;;;;;;23.97;21.57;;;-0.30;99.90;;;;;;5007001;28;20475;-76
2021/11/24 08:50:49;;;;;;;24.13;21.83;;;-0.20;99.90;;;;;;4984852;28;20472;-77
2021/11/24 08:53:19;;;;;;;23.30;21.40;;;-0.10;99.90;;;;;;4992013;28;20480;-76
2021/11/24 08:55:46;;;;;;;24.47;22.20;;;-0.10;99.90;;;;;;4980351;28;20518;-77
2021/11/24 08:58:15;;;;;;;24.83;22.33;;;-0.20;99.90;;;;;;4992024;28;20950;-77
2021/11/24 09:00:42;;;;;;;23.23;21.23;;;-0.20;99.90;;;;;;4988352;28;20441;-77
2021/11/24 09:03:10;;;;;;;25.57;22.93;;;-0.10;99.90;;;;;;4983802;28;20567;-76
2021/11/24 09:05:37;;;;;;;26.27;23.67;;;0.10;99.90;;;;;;5005537;28;20445;-77
2021/11/24 09:08:05;;;;;;;25.03;22.73;;;0.00;99.90;;;;;;4976013;28;20571;-77
2021/11/24 09:10:32;;;;;;;24.73;22.53;;;0.20;99.90;;;;;;4993055;28;20437;-76
2021/11/24 09:12:59;;;;;;;24.83;22.50;;;0.20;99.90;;;;;;4976847;28;20465;-77
2021/11/24 09:15:28;;;;;;;25.27;22.83;;;0.30;99.90;;;;;;4992140;28;20452;-77
2021/11/24 09:17:56;;;;;;;23.97;21.87;;;0.30;99.90;;;;;;4984446;28;20488;-77
2021/11/24 09:20:23;;;;;;;24.83;22.57;;;0.40;99.90;;;;;;4986409;28;20892;-77
2021/11/24 09:22:50;;;;;;;24.70;22.50;;;0.40;99.90;;;;;;4982165;28;20547;-77
2021/11/24 09:25:21;;;;;;;24.67;22.27;;;0.30;99.90;;;;;;4983448;28;20502;-78
2021/11/24 09:27:56;;;;;;;25.00;22.80;;;0.30;99.90;;;;;;4982300;28;20468;-77
2021/11/24 09:30:25;;;;;;;26.27;23.93;;;0.30;99.90;;;;;;5005987;28;20447;-78
2021/11/24 09:32:54;;;;;;;24.60;22.30;;;0.20;99.90;;;;;;4988625;28;20463;-77
2021/11/24 09:35:21;;;;;;;25.43;23.13;;;0.20;99.90;;;;;;4998818;28;20954;-77
2021/11/24 09:37:48;;;;;;;25.63;23.23;;;0.20;99.90;;;;;;4987441;28;20463;-77
2021/11/24 09:40:16;;;;;;;25.37;23.07;;;0.40;99.90;;;;;;4991877;28;20503;-77
2021/11/24 09:42:44;;;;;;;26.00;23.40;;;0.50;99.90;;;;;;4986819;28;20469;-76
2021/11/24 09:45:12;;;;;;;25.73;23.27;;;0.50;99.90;;;;;;4989510;28;20838;-77
2021/11/24 09:47:40;;;;;;;25.87;23.33;;;0.60;99.90;;;;;;4980779;28;20510;-77
2021/11/24 09:50:09;;;;;;;26.63;24.03;;;0.60;99.90;;;;;;4986858;28;20556;-77
2021/11/24 09:52:37;;;;;;;27.07;24.63;;;0.60;99.90;;;;;;4986052;28;20964;-77
2021/11/24 09:55:06;;;;;;;25.43;23.03;;;0.60;99.90;;;;;;4987300;28;20442;-77
2021/11/24 09:57:33;;;;;;;25.80;23.37;;;0.70;99.90;;;;;;4980801;28;20488;-77
2021/11/24 10:00:00;;;;;;;26.80;24.30;;;0.70;99.90;;;;;;4978721;28;20437;-77
2021/11/24 10:02:27;;;;;;;26.03;23.63;;;0.70;99.90;;;;;;4988873;28;20448;-76
2021/11/24 10:04:53;;;;;;;26.90;24.37;;;0.80;99.90;;;;;;4979888;28;20512;-76
2021/11/24 10:07:22;;;;;;;27.90;25.10;;;0.80;99.90;;;;;;4987438;28;20997;-77
2021/11/24 10:09:50;;;;;;;26.50;24.00;;;0.90;99.90;;;;;;4988112;28;20551;-77
2021/11/24 10:12:17;;;;;;;27.27;24.67;;;0.90;99.90;;;;;;4989516;28;20480;-77
2021/11/24 10:14:45;;;;;;;28.17;25.53;;;1.00;99.90;;;;;;4984057;28;20489;-77
2021/11/24 10:17:14;;;;;;;34.87;31.17;;;1.10;99.90;;;;;;4971046;28;20450;-77
2021/11/24 10:19:59;;;;;;;28.63;25.83;;;1.20;99.90;;;;;;5004694;28;20482;-77
2021/11/24 10:22:28;;;;;;;28.27;25.43;;;1.30;99.90;;;;;;4976248;28;20523;-77
2021/11/24 10:25:04;;;;;;;28.60;25.67;;;1.30;99.90;;;;;;4981564;28;20464;-77
2021/11/24 10:27:40;;;;;;;28.40;25.80;;;1.30;99.90;;;;;;4974478;28;20864;-77
2021/11/24 10:30:08;;;;;;;28.13;25.33;;;1.40;99.90;;;;;;4988621;28;20484;-77
2021/11/24 10:32:35;;;;;;;28.37;25.77;;;1.40;99.90;;;;;;4986062;28;20458;-77
2021/11/24 10:35:03;;;;;;;27.73;25.23;;;1.40;99.90;;;;;;4979002;28;20461;-78
2021/11/24 10:37:31;;;;;;;27.27;24.70;;;1.40;99.90;;;;;;5020285;28;20462;-79
2021/11/24 10:40:00;;;;;;;29.07;26.17;;;1.50;99.90;;;;;;5000777;28;20514;-79
2021/11/24 10:42:31;;;;;;;29.27;26.37;;;1.50;99.90;;;;;;4989121;28;20480;-79
2021/11/24 10:45:00;;;;;;;29.37;25.63;;;1.60;99.90;;;;;;4982969;28;20459;-78
2021/11/24 10:47:28;;;;;;;28.47;25.67;;;1.60;99.90;;;;;;4973050;28;20505;-77
2021/11/24 10:49:57;;;;;;;28.30;25.70;;;1.70;99.90;;;;;;4975531;28;20561;-78
2021/11/24 10:52:26;;;;;;;29.10;26.10;;;1.70;99.90;;;;;;4983684;28;20877;-78
2021/11/24 10:55:05;;;;;;;29.77;26.73;;;1.80;99.90;;;;;;4990586;28;20447;-78
2021/11/24 10:57:34;;;;;;;29.73;26.13;;;1.70;99.90;;;;;;4985985;28;20464;-78
2021/11/24 11:00:05;;;;;;;29.73;26.60;;;1.80;99.90;;;;;;4990290;28;20502;-78
2021/11/24 11:02:34;;;;;;;29.53;26.70;;;2.00;99.90;;;;;;4985520;28;20467;-78
2021/11/24 11:05:10;;;;;;;30.20;27.17;;;2.00;99.90;;;;;;4992362;28;20440;-78
2021/11/24 11:07:39;;;;;;;27.93;25.23;;;2.00;99.90;;;;;;4983746;28;20830;-78
2021/11/24 11:10:14;;;;;;;27.37;24.77;;;2.00;99.90;;;;;;4989864;28;20985;-77
2021/11/24 11:12:44;;;;;;;28.73;25.77;;;2.10;99.90;;;;;;4986073;28;20458;-78
2021/11/24 11:15:23;;;;;;;27.73;25.03;;;2.20;99.90;;;;;;4991619;28;20495;-78
2021/11/24 11:18:00;;;;;;;26.77;24.10;;;2.30;99.90;;;;;;4986704;28;20447;-78
2021/11/24 11:20:30;;;;;;;27.27;24.33;;;2.40;99.90;;;;;;4989979;28;20434;-77
2021/11/24 11:23:05;;;;;;;30.27;26.27;;;2.40;99.90;;;;;;4990043;28;20464;-77
2021/11/24 11:25:33;;;;;;;29.10;26.00;;;2.50;99.90;;;;;;4980741;28;20504;-77
2021/11/24 11:28:01;;;;;;;28.57;25.73;;;2.50;99.90;;;;;;5003494;28;20458;-78
2021/11/24 11:30:28;;;;;;;28.07;25.23;;;2.50;99.90;;;;;;5000915;28;20482;-78
2021/11/24 11:32:56;;;;;;;32.07;26.57;;;2.60;99.90;;;;;;4994408;28;20547;-78
2021/11/24 11:35:24;;;;;;;29.40;26.33;;;2.70;99.90;;;;;;4993751;28;20511;-78
2021/11/24 11:37:52;;;;;;;29.37;26.33;;;2.70;99.90;;;;;;4992871;28;20452;-78
2021/11/24 11:40:19;;;;;;;29.00;26.13;;;2.80;99.90;;;;;;4992002;28;20489;-80
2021/11/24 11:42:50;;;;;;;30.30;26.77;;;2.80;99.90;;;;;;4991748;28;20471;-77
2021/11/24 11:45:19;;;;;;;29.07;26.20;;;2.80;99.90;;;;;;4992776;28;20249;-77
2021/11/24 11:47:52;;;;;;;29.97;26.83;;;2.90;99.90;;;;;;4994000;28;20441;-78
2021/11/24 11:50:52;;;;;;;30.67;27.43;;;2.80;99.90;;;;;;4990194;28;20907;-78
2021/11/24 11:53:21;;;;;;;29.43;26.43;;;2.90;99.90;;;;;;4990883;28;20535;-77
2021/11/24 11:56:07;;;;;;;28.80;26.00;;;3.00;99.90;;;;;;4994920;28;20904;-77
2021/11/24 11:58:45;;;;;;;30.23;27.13;;;3.00;99.90;;;;;;4990585;28;20535;-78
2021/11/24 12:01:15;;;;;;;30.00;26.97;;;3.10;99.90;;;;;;4993601;28;20468;-77
2021/11/24 12:04:06;;;;;;;29.70;26.60;;;3.10;99.90;;;;;;4993584;28;20463;-78
2021/11/24 12:06:34;;;;;;;30.47;27.27;;;3.10;99.90;;;;;;4983835;28;20513;-78
2021/11/24 12:09:26;;;;;;;30.03;27.03;;;3.20;99.90;;;;;;4990917;28;20855;-79
2021/11/24 12:12:11;;;;;;;29.63;26.60;;;3.30;99.90;;;;;;4997882;28;20241;-78
2021/11/24 12:14:45;;;;;;;29.23;26.13;;;3.30;99.90;;;;;;4980561;28;20455;-78
2021/11/24 12:17:31;;;;;;;29.33;26.43;;;3.40;99.90;;;;;;4992109;28;20198;-77
2021/11/24 12:20:00;;;;;;;28.33;25.33;;;3.50;99.90;;;;;;4992881;28;20449;-79
2021/11/24 12:22:52;;;;;;;29.03;25.30;;;3.50;99.90;;;;;;4997263;28;20875;-77
2021/11/24 12:25:43;;;;;;;24.67;22.07;;;3.50;99.90;;;;;;4990589;28;20210;-78
2021/11/24 12:28:13;;;;;;;25.97;20.53;;;3.50;99.90;;;;;;4990566;28;20900;-78
2021/11/24 12:31:06;;;;;;;22.50;17.67;;;3.50;99.90;;;;;;4993391;28;20315;-78
2021/11/24 12:33:55;;;;;;;21.13;15.90;;;3.50;99.90;;;;;;5005552;28;20476;-77
2021/11/24 12:36:31;;;;;;;21.10;15.10;;;3.60;99.90;;;;;;4992361;28;20805;-78
2021/11/24 12:39:03;;;;;;;21.47;15.33;;;3.60;99.90;;;;;;4992442;28;20821;-78